Rechercher aéroport 
image banner adimage banner adimage banner ad
image banner ad

23CN - Douthitt Strip

Situé à El Centro, United States

ICAO - 23CN, IATA -

Données fournies par Airmate  

Information générale

Coordonnées: N32°47'20" W115°31'47"
Élévation : 45 feet MSL.
Variation magnétique : 13° East
Voir autres Aéroports à California

Données opérationnelles

Special qualification required
Heure actuelle UTC:
Heure actuelle locale:
Météo à : KIPL - Imperial County ( 7 km )
METAR: KIPL 251153Z AUTO 13010KT 10SM CLR 30/23 A2981 RMK AO2 SLP096 T03000233 10328 20300 50000
TAF: KIPL 251120Z 2512/2612 12010KT P6SM FEW080 BKN120 FM251500 11012KT P6SM SCT080 BKN100 OVC150 FM252100 12012G18KT P6SM VCSH SCT060 BKN100 FM260100 13007KT P6SM SCT080 BKN120
Voir NOTAMs / SUP AIP / TFR affectant cet aéroport [VIEW]
Fréquences de communication: [VIEW]

Pistes:

Identifiant RWYQFULongueur (ft)Largeur (ft)SurfaceLDA (ft)
041800100EARTH
221800100EARTH
081400100EARTH
261400100EARTH

Coordonnées de l'aéroport

Adresse: El Centro United States

Vue satellite de 23CN